sensor_id;sensor_type;location;lat;lon;timestamp;pressure;altitude;pressure_sealevel;temperature;humidity
55540;BME280;41384;51.418;7.286;2023-05-03T00:01:08;101044.00;;;6.26;82.88
55540;BME280;41384;51.418;7.286;2023-05-03T00:03:34;101040.75;;;6.78;79.65
55540;BME280;41384;51.418;7.286;2023-05-03T00:06:13;101043.91;;;6.82;77.80
55540;BME280;41384;51.418;7.286;2023-05-03T00:08:38;101035.81;;;6.75;78.36
55540;BME280;41384;51.418;7.286;2023-05-03T00:11:04;101041.47;;;6.34;81.02
55540;BME280;41384;51.418;7.286;2023-05-03T00:13:29;101045.69;;;5.89;83.70
55540;BME280;41384;51.418;7.286;2023-05-03T00:15:54;101039.69;;;5.69;86.20
55540;BME280;41384;51.418;7.286;2023-05-03T00:18:20;101036.66;;;5.74;86.66
55540;BME280;41384;51.418;7.286;2023-05-03T00:20:45;101036.91;;;5.80;86.09
55540;BME280;41384;51.418;7.286;2023-05-03T00:23:11;101038.09;;;5.58;86.92
55540;BME280;41384;51.418;7.286;2023-05-03T00:25:36;101032.59;;;5.51;88.45
55540;BME280;41384;51.418;7.286;2023-05-03T00:28:01;101037.53;;;5.54;88.61
55540;BME280;41384;51.418;7.286;2023-05-03T00:30:27;101031.09;;;5.49;88.61
55540;BME280;41384;51.418;7.286;2023-05-03T00:32:52;101042.03;;;5.34;89.01
55540;BME280;41384;51.418;7.286;2023-05-03T00:35:17;101039.41;;;5.34;88.54
55540;BME280;41384;51.418;7.286;2023-05-03T00:37:43;101033.63;;;5.31;89.60
55540;BME280;41384;51.418;7.286;2023-05-03T00:40:08;101027.41;;;5.32;88.88
55540;BME280;41384;51.418;7.286;2023-05-03T00:42:35;101037.09;;;5.21;89.93
55540;BME280;41384;51.418;7.286;2023-05-03T00:45:01;101041.75;;;5.18;89.74
55540;BME280;41384;51.418;7.286;2023-05-03T00:47:29;101043.56;;;5.17;89.64
55540;BME280;41384;51.418;7.286;2023-05-03T00:49:55;101038.91;;;5.59;87.70
55540;BME280;41384;51.418;7.286;2023-05-03T00:52:20;101034.69;;;5.86;85.63
55540;BME280;41384;51.418;7.286;2023-05-03T00:54:45;101038.41;;;5.45;86.97
55540;BME280;41384;51.418;7.286;2023-05-03T00:57:10;101056.63;;;5.27;88.55
55540;BME280;41384;51.418;7.286;2023-05-03T00:59:36;101052.63;;;5.23;89.86
55540;BME280;41384;51.418;7.286;2023-05-03T01:02:01;101054.44;;;5.13;90.02
55540;BME280;41384;51.418;7.286;2023-05-03T01:04:27;101048.13;;;5.05;90.71
55540;BME280;41384;51.418;7.286;2023-05-03T01:07:22;101054.72;;;5.19;90.54
55540;BME280;41384;51.418;7.286;2023-05-03T01:10:22;101050.44;;;5.18;89.82
55540;BME280;41384;51.418;7.286;2023-05-03T01:12:54;101045.09;;;5.00;90.63
55540;BME280;41384;51.418;7.286;2023-05-03T01:15:43;101051.97;;;4.72;93.14
55540;BME280;41384;51.418;7.286;2023-05-03T01:18:13;101049.63;;;4.68;94.28
55540;BME280;41384;51.418;7.286;2023-05-03T01:20:42;101053.09;;;4.69;94.22
55540;BME280;41384;51.418;7.286;2023-05-03T01:23:28;101046.22;;;4.97;93.05
55540;BME280;41384;51.418;7.286;2023-05-03T01:25:55;101047.94;;;5.26;90.25
55540;BME280;41384;51.418;7.286;2023-05-03T01:28:20;101051.25;;;5.19;89.91
55540;BME280;41384;51.418;7.286;2023-05-03T01:30:46;101050.31;;;5.00;91.47
55540;BME280;41384;51.418;7.286;2023-05-03T01:33:30;101052.81;;;4.92;91.82
55540;BME280;41384;51.418;7.286;2023-05-03T01:36:22;101053.63;;;4.73;93.00
55540;BME280;41384;51.418;7.286;2023-05-03T01:38:50;101054.03;;;4.78;92.98
55540;BME280;41384;51.418;7.286;2023-05-03T01:41:17;101056.50;;;4.70;94.04
55540;BME280;41384;51.418;7.286;2023-05-03T01:43:44;101059.41;;;4.76;93.11
55540;BME280;41384;51.418;7.286;2023-05-03T01:46:10;101057.50;;;4.78;93.92
55540;BME280;41384;51.418;7.286;2023-05-03T01:48:35;101063.94;;;4.55;94.03
55540;BME280;41384;51.418;7.286;2023-05-03T01:51:01;101064.50;;;4.58;94.78
55540;BME280;41384;51.418;7.286;2023-05-03T01:53:26;101067.13;;;4.68;94.91
55540;BME280;41384;51.418;7.286;2023-05-03T01:55:51;101056.66;;;4.88;93.50
55540;BME280;41384;51.418;7.286;2023-05-03T01:58:16;101062.84;;;4.77;94.06
55540;BME280;41384;51.418;7.286;2023-05-03T02:00:44;101068.63;;;4.61;95.21
55540;BME280;41384;51.418;7.286;2023-05-03T02:03:10;101075.09;;;4.57;95.64
55540;BME280;41384;51.418;7.286;2023-05-03T02:05:35;101076.88;;;4.56;95.66
55540;BME280;41384;51.418;7.286;2023-05-03T02:08:00;101071.00;;;4.84;94.72
55540;BME280;41384;51.418;7.286;2023-05-03T02:10:25;101070.28;;;5.01;92.85
55540;BME280;41384;51.418;7.286;2023-05-03T02:12:51;101064.50;;;4.78;94.88
55540;BME280;41384;51.418;7.286;2023-05-03T02:15:16;101074.13;;;4.58;95.24
55540;BME280;41384;51.418;7.286;2023-05-03T02:17:44;101074.13;;;4.58;95.98
55540;BME280;41384;51.418;7.286;2023-05-03T02:20:11;101078.97;;;4.72;95.30
55540;BME280;41384;51.418;7.286;2023-05-03T02:22:37;101081.88;;;4.89;94.98
55540;BME280;41384;51.418;7.286;2023-05-03T02:25:03;101092.47;;;4.97;93.36
55540;BME280;41384;51.418;7.286;2023-05-03T02:27:28;101091.06;;;4.83;92.88
55540;BME280;41384;51.418;7.286;2023-05-03T02:29:53;101085.56;;;4.57;95.29
55540;BME280;41384;51.418;7.286;2023-05-03T02:32:20;101095.00;;;4.38;96.17
55540;BME280;41384;51.418;7.286;2023-05-03T02:34:47;101098.84;;;4.34;97.32
55540;BME280;41384;51.418;7.286;2023-05-03T02:37:13;101102.72;;;4.40;97.29
55540;BME280;41384;51.418;7.286;2023-05-03T02:39:38;101095.41;;;4.33;97.31
55540;BME280;41384;51.418;7.286;2023-05-03T02:42:03;101099.22;;;4.19;98.30
55540;BME280;41384;51.418;7.286;2023-05-03T02:44:29;101088.78;;;4.29;98.12
55540;BME280;41384;51.418;7.286;2023-05-03T02:46:54;101094.16;;;4.28;97.95
55540;BME280;41384;51.418;7.286;2023-05-03T02:49:19;101095.22;;;4.15;97.93
55540;BME280;41384;51.418;7.286;2023-05-03T02:51:45;101096.44;;;4.11;98.32
55540;BME280;41384;51.418;7.286;2023-05-03T02:54:10;101097.09;;;4.03;97.73
55540;BME280;41384;51.418;7.286;2023-05-03T02:56:36;101097.56;;;4.18;97.07
55540;BME280;41384;51.418;7.286;2023-05-03T02:59:02;101092.81;;;4.33;96.44
55540;BME280;41384;51.418;7.286;2023-05-03T03:01:27;101099.78;;;4.33;96.21
55540;BME280;41384;51.418;7.286;2023-05-03T03:03:53;101094.56;;;4.23;96.78
55540;BME280;41384;51.418;7.286;2023-05-03T03:06:19;101083.84;;;4.26;97.61
55540;BME280;41384;51.418;7.286;2023-05-03T03:08:44;101091.09;;;4.22;97.75
55540;BME280;41384;51.418;7.286;2023-05-03T03:11:09;101081.31;;;4.15;97.97
55540;BME280;41384;51.418;7.286;2023-05-03T03:13:34;101076.53;;;4.30;97.85
55540;BME280;41384;51.418;7.286;2023-05-03T03:16:08;101071.59;;;4.27;96.99
55540;BME280;41384;51.418;7.286;2023-05-03T03:18:33;101079.03;;;4.41;96.26
55540;BME280;41384;51.418;7.286;2023-05-03T03:21:02;101071.22;;;4.51;96.39
55540;BME280;41384;51.418;7.286;2023-05-03T03:23:28;101078.56;;;4.87;92.96
55540;BME280;41384;51.418;7.286;2023-05-03T03:25:53;101072.22;;;4.70;93.22
55540;BME280;41384;51.418;7.286;2023-05-03T03:28:18;101069.31;;;4.53;93.30
55540;BME280;41384;51.418;7.286;2023-05-03T03:30:43;101060.47;;;4.34;94.66
55540;BME280;41384;51.418;7.286;2023-05-03T03:33:09;101067.06;;;4.38;94.51
55540;BME280;41384;51.418;7.286;2023-05-03T03:35:36;101060.50;;;4.44;94.58
55540;BME280;41384;51.418;7.286;2023-05-03T03:38:02;101068.34;;;4.44;94.66
55540;BME280;41384;51.418;7.286;2023-05-03T03:40:27;101069.66;;;4.29;95.52
55540;BME280;41384;51.418;7.286;2023-05-03T03:42:52;101064.59;;;4.37;94.83
55540;BME280;41384;51.418;7.286;2023-05-03T03:45:17;101053.88;;;4.50;93.92
55540;BME280;41384;51.418;7.286;2023-05-03T03:47:43;101051.84;;;4.63;93.84
55540;BME280;41384;51.418;7.286;2023-05-03T03:50:08;101049.22;;;4.53;94.11
55540;BME280;41384;51.418;7.286;2023-05-03T03:52:34;101048.38;;;4.73;93.76
55540;BME280;41384;51.418;7.286;2023-05-03T03:54:59;101050.31;;;4.71;93.36
55540;BME280;41384;51.418;7.286;2023-05-03T03:57:25;101043.84;;;4.75;93.05
55540;BME280;41384;51.418;7.286;2023-05-03T03:59:54;101053.91;;;4.70;92.69
55540;BME280;41384;51.418;7.286;2023-05-03T04:02:19;101045.91;;;4.81;92.03
55540;BME280;41384;51.418;7.286;2023-05-03T04:04:45;101050.47;;;4.89;91.63
55540;BME280;41384;51.418;7.286;2023-05-03T04:07:11;101044.25;;;4.80;92.40
55540;BME280;41384;51.418;7.286;2023-05-03T04:09:36;101041.38;;;4.83;92.02
55540;BME280;41384;51.418;7.286;2023-05-03T04:12:02;101044.56;;;4.96;91.34
55540;BME280;41384;51.418;7.286;2023-05-03T04:14:27;101039.84;;;5.10;90.57
55540;BME280;41384;51.418;7.286;2023-05-03T04:16:53;101036.28;;;5.11;90.26
55540;BME280;41384;51.418;7.286;2023-05-03T04:19:18;101033.50;;;5.32;88.75
55540;BME280;41384;51.418;7.286;2023-05-03T04:21:46;101030.03;;;5.32;87.41
55540;BME280;41384;51.418;7.286;2023-05-03T04:24:14;101027.56;;;5.30;88.42
55540;BME280;41384;51.418;7.286;2023-05-03T04:26:39;101031.84;;;5.21;88.64
55540;BME280;41384;51.418;7.286;2023-05-03T04:29:05;101028.44;;;5.11;89.95
55540;BME280;41384;51.418;7.286;2023-05-03T04:31:31;101021.22;;;5.23;90.19
55540;BME280;41384;51.418;7.286;2023-05-03T04:33:56;101016.25;;;5.20;89.66
55540;BME280;41384;51.418;7.286;2023-05-03T04:36:22;101024.97;;;5.20;89.04
55540;BME280;41384;51.418;7.286;2023-05-03T04:38:49;101022.97;;;5.42;89.38
55540;BME280;41384;51.418;7.286;2023-05-03T04:41:14;101030.19;;;5.30;88.98
55540;BME280;41384;51.418;7.286;2023-05-03T04:43:41;101038.84;;;5.21;89.00
55540;BME280;41384;51.418;7.286;2023-05-03T04:46:07;101042.03;;;5.15;90.00
55540;BME280;41384;51.418;7.286;2023-05-03T04:48:32;101048.06;;;5.35;89.27
55540;BME280;41384;51.418;7.286;2023-05-03T04:50:58;101045.50;;;5.15;89.46
55540;BME280;41384;51.418;7.286;2023-05-03T04:53:23;101042.59;;;5.18;90.43
55540;BME280;41384;51.418;7.286;2023-05-03T04:55:48;101065.47;;;5.16;89.94
55540;BME280;41384;51.418;7.286;2023-05-03T04:58:15;101065.59;;;5.15;90.79
55540;BME280;41384;51.418;7.286;2023-05-03T05:00:41;101068.91;;;5.17;91.08
55540;BME280;41384;51.418;7.286;2023-05-03T05:03:06;101067.41;;;5.14;90.72
55540;BME280;41384;51.418;7.286;2023-05-03T05:05:31;101079.78;;;5.02;91.54
55540;BME280;41384;51.418;7.286;2023-05-03T05:07:57;101080.88;;;5.29;91.33
55540;BME280;41384;51.418;7.286;2023-05-03T05:10:22;101079.09;;;5.30;91.14
55540;BME280;41384;51.418;7.286;2023-05-03T05:12:47;101075.09;;;5.35;90.52
55540;BME280;41384;51.418;7.286;2023-05-03T05:15:13;101070.09;;;5.42;89.06
55540;BME280;41384;51.418;7.286;2023-05-03T05:17:38;101078.38;;;5.47;89.33
55540;BME280;41384;51.418;7.286;2023-05-03T05:20:03;101070.78;;;5.44;89.70
55540;BME280;41384;51.418;7.286;2023-05-03T05:22:31;101071.13;;;5.69;88.74
55540;BME280;41384;51.418;7.286;2023-05-03T05:24:56;101076.63;;;5.76;87.19
55540;BME280;41384;51.418;7.286;2023-05-03T05:27:21;101073.34;;;5.74;87.68
55540;BME280;41384;51.418;7.286;2023-05-03T05:29:47;101077.72;;;5.73;87.68
55540;BME280;41384;51.418;7.286;2023-05-03T05:32:12;101077.03;;;5.81;86.76
55540;BME280;41384;51.418;7.286;2023-05-03T05:34:38;101082.66;;;5.86;86.12
55540;BME280;41384;51.418;7.286;2023-05-03T05:37:03;101086.06;;;5.96;85.68
55540;BME280;41384;51.418;7.286;2023-05-03T05:39:29;101092.28;;;6.05;85.57
55540;BME280;41384;51.418;7.286;2023-05-03T05:41:55;101101.78;;;6.06;85.94
55540;BME280;41384;51.418;7.286;2023-05-03T05:44:20;101101.13;;;6.04;86.36
55540;BME280;41384;51.418;7.286;2023-05-03T05:46:45;101102.88;;;6.13;86.51
55540;BME280;41384;51.418;7.286;2023-05-03T05:49:11;101099.75;;;5.90;89.05
55540;BME280;41384;51.418;7.286;2023-05-03T05:51:36;101096.66;;;6.15;88.45
55540;BME280;41384;51.418;7.286;2023-05-03T05:54:02;101117.59;;;6.24;87.58
55540;BME280;41384;51.418;7.286;2023-05-03T05:56:27;101120.53;;;6.11;86.23
55540;BME280;41384;51.418;7.286;2023-05-03T05:58:52;101121.03;;;6.25;85.64
55540;BME280;41384;51.418;7.286;2023-05-03T06:01:18;101123.91;;;6.32;86.04
55540;BME280;41384;51.418;7.286;2023-05-03T06:03:43;101123.84;;;6.41;85.92
55540;BME280;41384;51.418;7.286;2023-05-03T06:06:08;101126.31;;;6.43;84.66
55540;BME280;41384;51.418;7.286;2023-05-03T06:08:34;101117.41;;;6.54;84.84
55540;BME280;41384;51.418;7.286;2023-05-03T06:10:59;101123.75;;;6.97;81.47
55540;BME280;41384;51.418;7.286;2023-05-03T06:13:24;101127.28;;;7.06;80.38
55540;BME280;41384;51.418;7.286;2023-05-03T06:15:49;101123.53;;;6.91;82.32
55540;BME280;41384;51.418;7.286;2023-05-03T06:18:15;101133.44;;;6.97;80.92
55540;BME280;41384;51.418;7.286;2023-05-03T06:20:41;101129.63;;;7.09;79.84
55540;BME280;41384;51.418;7.286;2023-05-03T06:23:06;101140.19;;;7.18;79.69
55540;BME280;41384;51.418;7.286;2023-05-03T06:25:31;101139.50;;;7.34;79.54
55540;BME280;41384;51.418;7.286;2023-05-03T06:27:57;101141.50;;;7.40;78.86
55540;BME280;41384;51.418;7.286;2023-05-03T06:30:22;101134.16;;;7.43;77.51
55540;BME280;41384;51.418;7.286;2023-05-03T06:32:49;101148.19;;;7.52;79.14
55540;BME280;41384;51.418;7.286;2023-05-03T06:35:15;101138.19;;;7.56;79.05
55540;BME280;41384;51.418;7.286;2023-05-03T06:37:42;101135.09;;;7.61;78.15
55540;BME280;41384;51.418;7.286;2023-05-03T06:40:08;101134.19;;;7.70;78.00
55540;BME280;41384;51.418;7.286;2023-05-03T06:42:33;101135.09;;;7.61;78.20
55540;BME280;41384;51.418;7.286;2023-05-03T06:44:58;101132.91;;;7.74;77.26
55540;BME280;41384;51.418;7.286;2023-05-03T06:47:24;101126.84;;;7.82;78.26
55540;BME280;41384;51.418;7.286;2023-05-03T06:49:49;101130.97;;;7.84;76.29
55540;BME280;41384;51.418;7.286;2023-05-03T06:52:15;101132.00;;;7.92;76.88
55540;BME280;41384;51.418;7.286;2023-05-03T06:54:40;101130.13;;;7.84;76.55
55540;BME280;41384;51.418;7.286;2023-05-03T06:57:06;101122.81;;;7.96;76.05
55540;BME280;41384;51.418;7.286;2023-05-03T06:59:31;101128.97;;;8.05;76.10
55540;BME280;41384;51.418;7.286;2023-05-03T07:01:57;101123.22;;;8.09;74.75
55540;BME280;41384;51.418;7.286;2023-05-03T07:04:22;101129.50;;;8.16;74.07
55540;BME280;41384;51.418;7.286;2023-05-03T07:06:47;101128.38;;;8.19;74.56
55540;BME280;41384;51.418;7.286;2023-05-03T07:09:13;101121.50;;;8.26;74.36
55540;BME280;41384;51.418;7.286;2023-05-03T07:11:38;101125.28;;;8.32;74.05
55540;BME280;41384;51.418;7.286;2023-05-03T07:14:08;101130.69;;;8.22;74.76
55540;BME280;41384;51.418;7.286;2023-05-03T07:16:34;101129.56;;;8.33;74.06
55540;BME280;41384;51.418;7.286;2023-05-03T07:18:59;101126.25;;;8.31;74.86
55540;BME280;41384;51.418;7.286;2023-05-03T07:21:24;101126.91;;;8.33;74.52
55540;BME280;41384;51.418;7.286;2023-05-03T07:23:50;101129.09;;;8.38;76.47
55540;BME280;41384;51.418;7.286;2023-05-03T07:26:16;101133.03;;;8.42;74.78
55540;BME280;41384;51.418;7.286;2023-05-03T07:28:41;101123.41;;;8.51;73.86
55540;BME280;41384;51.418;7.286;2023-05-03T07:31:06;101117.19;;;8.60;73.36
55540;BME280;41384;51.418;7.286;2023-05-03T07:33:33;101118.50;;;8.64;72.56
55540;BME280;41384;51.418;7.286;2023-05-03T07:36:01;101116.56;;;8.74;72.64
55540;BME280;41384;51.418;7.286;2023-05-03T07:38:26;101118.19;;;8.75;71.68
55540;BME280;41384;51.418;7.286;2023-05-03T07:40:52;101116.88;;;8.80;71.80
55540;BME280;41384;51.418;7.286;2023-05-03T07:43:17;101104.56;;;8.88;71.34
55540;BME280;41384;51.418;7.286;2023-05-03T07:45:44;101101.75;;;8.90;71.14
55540;BME280;41384;51.418;7.286;2023-05-03T07:48:09;101104.72;;;8.95;70.91
55540;BME280;41384;51.418;7.286;2023-05-03T07:50:35;101091.41;;;8.97;70.29
55540;BME280;41384;51.418;7.286;2023-05-03T07:53:00;101091.22;;;8.98;70.05
55540;BME280;41384;51.418;7.286;2023-05-03T07:55:25;101080.38;;;9.01;70.59
55540;BME280;41384;51.418;7.286;2023-05-03T07:57:51;101090.56;;;9.13;70.06
55540;BME280;41384;51.418;7.286;2023-05-03T08:00:17;101095.50;;;9.16;68.48
55540;BME280;41384;51.418;7.286;2023-05-03T08:02:43;101077.72;;;9.26;68.23
55540;BME280;41384;51.418;7.286;2023-05-03T08:05:09;101085.16;;;9.23;66.93
55540;BME280;41384;51.418;7.286;2023-05-03T08:07:37;101084.63;;;9.27;67.46
55540;BME280;41384;51.418;7.286;2023-05-03T08:10:03;101085.13;;;9.31;66.85
55540;BME280;41384;51.418;7.286;2023-05-03T08:12:28;101090.25;;;9.32;66.79
55540;BME280;41384;51.418;7.286;2023-05-03T08:14:54;101081.34;;;9.33;66.71
55540;BME280;41384;51.418;7.286;2023-05-03T08:17:20;101083.31;;;9.40;65.40
55540;BME280;41384;51.418;7.286;2023-05-03T08:19:46;101084.44;;;9.45;66.02
55540;BME280;41384;51.418;7.286;2023-05-03T08:22:12;101084.63;;;9.52;66.23
55540;BME280;41384;51.418;7.286;2023-05-03T08:24:38;101078.81;;;9.57;66.62
55540;BME280;41384;51.418;7.286;2023-05-03T08:27:04;101086.72;;;9.65;65.74
55540;BME280;41384;51.418;7.286;2023-05-03T08:29:30;101085.72;;;9.66;64.64
55540;BME280;41384;51.418;7.286;2023-05-03T08:31:56;101079.31;;;9.69;64.17
55540;BME280;41384;51.418;7.286;2023-05-03T08:34:22;101069.03;;;9.82;64.47
55540;BME280;41384;51.418;7.286;2023-05-03T08:36:47;101068.84;;;9.92;64.02
55540;BME280;41384;51.418;7.286;2023-05-03T08:39:12;101070.84;;;9.90;63.92
55540;BME280;41384;51.418;7.286;2023-05-03T08:41:39;101071.75;;;10.05;64.20
55540;BME280;41384;51.418;7.286;2023-05-03T08:44:06;101068.59;;;10.10;63.57
55540;BME280;41384;51.418;7.286;2023-05-03T08:46:32;101077.16;;;10.20;63.90
55540;BME280;41384;51.418;7.286;2023-05-03T08:49:01;101078.81;;;10.13;61.74
55540;BME280;41384;51.418;7.286;2023-05-03T08:51:26;101079.44;;;10.15;62.35
55540;BME280;41384;51.418;7.286;2023-05-03T08:53:52;101087.06;;;10.18;61.79
55540;BME280;41384;51.418;7.286;2023-05-03T08:56:38;101087.41;;;10.39;63.35
55540;BME280;41384;51.418;7.286;2023-05-03T08:59:04;101085.47;;;10.32;60.14
55540;BME280;41384;51.418;7.286;2023-05-03T09:01:37;101076.06;;;10.38;60.96
55540;BME280;41384;51.418;7.286;2023-05-03T09:04:03;101071.06;;;10.51;61.73
55540;BME280;41384;51.418;7.286;2023-05-03T09:06:29;101063.22;;;10.67;62.79
55540;BME280;41384;51.418;7.286;2023-05-03T09:08:57;101058.38;;;10.70;61.29
55540;BME280;41384;51.418;7.286;2023-05-03T09:11:26;101062.38;;;10.66;60.25
55540;BME280;41384;51.418;7.286;2023-05-03T09:13:52;101058.03;;;10.73;60.95
55540;BME280;41384;51.418;7.286;2023-05-03T09:16:25;101067.03;;;10.87;62.13
55540;BME280;41384;51.418;7.286;2023-05-03T09:18:58;101067.66;;;10.89;60.78
55540;BME280;41384;51.418;7.286;2023-05-03T09:21:24;101069.81;;;10.86;58.88
55540;BME280;41384;51.418;7.286;2023-05-03T09:23:50;101075.03;;;10.94;60.69
55540;BME280;41384;51.418;7.286;2023-05-03T09:26:29;101060.19;;;10.93;61.24
55540;BME280;41384;51.418;7.286;2023-05-03T09:28:57;101061.88;;;11.09;59.51
55540;BME280;41384;51.418;7.286;2023-05-03T09:31:22;101064.16;;;11.12;59.03
55540;BME280;41384;51.418;7.286;2023-05-03T09:33:47;101057.34;;;11.18;59.56
55540;BME280;41384;51.418;7.286;2023-05-03T09:36:13;101054.00;;;11.24;59.77
55540;BME280;41384;51.418;7.286;2023-05-03T09:38:38;101052.34;;;11.38;60.69
55540;BME280;41384;51.418;7.286;2023-05-03T09:41:03;101053.66;;;11.57;60.67
55540;BME280;41384;51.418;7.286;2023-05-03T09:43:30;101053.22;;;11.53;59.06
55540;BME280;41384;51.418;7.286;2023-05-03T09:46:10;101052.91;;;11.63;58.21
55540;BME280;41384;51.418;7.286;2023-05-03T09:48:36;101049.53;;;11.70;57.68
55540;BME280;41384;51.418;7.286;2023-05-03T09:51:02;101044.88;;;11.72;56.79
55540;BME280;41384;51.418;7.286;2023-05-03T09:53:31;101039.50;;;11.80;57.02
55540;BME280;41384;51.418;7.286;2023-05-03T09:55:56;101044.69;;;11.88;56.49
55540;BME280;41384;51.418;7.286;2023-05-03T09:58:23;101050.44;;;11.92;55.80
55540;BME280;41384;51.418;7.286;2023-05-03T10:00:50;101044.88;;;11.87;55.08
55540;BME280;41384;51.418;7.286;2023-05-03T10:03:24;101040.66;;;11.92;55.27
55540;BME280;41384;51.418;7.286;2023-05-03T10:05:53;101042.50;;;11.92;53.84
55540;BME280;41384;51.418;7.286;2023-05-03T10:08:33;101038.13;;;11.99;53.27
55540;BME280;41384;51.418;7.286;2023-05-03T10:11:02;101049.72;;;12.13;54.67
55540;BME280;41384;51.418;7.286;2023-05-03T10:13:28;101037.00;;;12.23;55.29
55540;BME280;41384;51.418;7.286;2023-05-03T10:16:07;101032.94;;;12.43;56.31
55540;BME280;41384;51.418;7.286;2023-05-03T10:18:42;101032.34;;;12.47;55.11
55540;BME280;41384;51.418;7.286;2023-05-03T10:21:11;101020.63;;;12.57;56.86
55540;BME280;41384;51.418;7.286;2023-05-03T10:24:10;101008.84;;;12.59;54.79
55540;BME280;41384;51.418;7.286;2023-05-03T10:26:45;101002.72;;;12.59;53.23
55540;BME280;41384;51.418;7.286;2023-05-03T10:32:04;100998.97;;;12.75;54.47
55540;BME280;41384;51.418;7.286;2023-05-03T10:34:38;100992.50;;;12.55;53.39
55540;BME280;41384;51.418;7.286;2023-05-03T10:37:09;101002.56;;;12.67;55.51
55540;BME280;41384;51.418;7.286;2023-05-03T10:39:35;100997.03;;;12.83;53.02
55540;BME280;41384;51.418;7.286;2023-05-03T10:42:03;100990.91;;;12.83;52.32
55540;BME280;41384;51.418;7.286;2023-05-03T10:44:53;100994.41;;;12.90;51.81
55540;BME280;41384;51.418;7.286;2023-05-03T10:47:21;100991.00;;;12.96;52.82
55540;BME280;41384;51.418;7.286;2023-05-03T10:57:41;100988.91;;;13.20;51.41
55540;BME280;41384;51.418;7.286;2023-05-03T11:00:16;101000.66;;;13.11;50.95
55540;BME280;41384;51.418;7.286;2023-05-03T11:05:21;101001.91;;;13.43;51.77
55540;BME280;41384;51.418;7.286;2023-05-03T11:07:47;100993.63;;;13.53;51.74
55540;BME280;41384;51.418;7.286;2023-05-03T11:10:17;100985.34;;;13.35;50.28
55540;BME280;41384;51.418;7.286;2023-05-03T11:12:43;100983.31;;;13.37;50.29
55540;BME280;41384;51.418;7.286;2023-05-03T11:15:09;100987.91;;;13.56;51.28
55540;BME280;41384;51.418;7.286;2023-05-03T11:17:36;100988.78;;;13.35;51.01
55540;BME280;41384;51.418;7.286;2023-05-03T11:20:04;100977.56;;;13.33;49.13
55540;BME280;41384;51.418;7.286;2023-05-03T11:22:32;100970.78;;;13.59;49.97
55540;BME280;41384;51.418;7.286;2023-05-03T11:24:58;100964.03;;;13.56;47.97
55540;BME280;41384;51.418;7.286;2023-05-03T11:27:23;100956.09;;;13.63;48.47
55540;BME280;41384;51.418;7.286;2023-05-03T11:29:49;100961.03;;;13.73;49.06
55540;BME280;41384;51.418;7.286;2023-05-03T11:32:15;100956.97;;;13.70;48.14
55540;BME280;41384;51.418;7.286;2023-05-03T11:34:40;100952.66;;;13.69;48.47
55540;BME280;41384;51.418;7.286;2023-05-03T11:37:07;100956.97;;;13.77;49.66
55540;BME280;41384;51.418;7.286;2023-05-03T11:39:32;100951.69;;;13.84;48.84
55540;BME280;41384;51.418;7.286;2023-05-03T11:42:04;100957.84;;;14.11;50.38
55540;BME280;41384;51.418;7.286;2023-05-03T11:44:30;100960.97;;;14.22;49.67
55540;BME280;41384;51.418;7.286;2023-05-03T11:46:55;100956.06;;;14.25;49.67
55540;BME280;41384;51.418;7.286;2023-05-03T11:49:22;100952.56;;;14.05;48.47
55540;BME280;41384;51.418;7.286;2023-05-03T11:51:49;100958.47;;;14.13;48.37
55540;BME280;41384;51.418;7.286;2023-05-03T11:54:16;100952.19;;;14.35;50.27
55540;BME280;41384;51.418;7.286;2023-05-03T11:56:41;100966.69;;;14.32;48.89
55540;BME280;41384;51.418;7.286;2023-05-03T11:59:07;100962.81;;;14.48;49.48
55540;BME280;41384;51.418;7.286;2023-05-03T12:01:32;100967.13;;;14.56;49.08
55540;BME280;41384;51.418;7.286;2023-05-03T12:04:00;100964.44;;;14.69;49.85
55540;BME280;41384;51.418;7.286;2023-05-03T12:06:28;100957.28;;;14.56;47.38
55540;BME280;41384;51.418;7.286;2023-05-03T12:08:55;100946.47;;;14.65;48.43
55540;BME280;41384;51.418;7.286;2023-05-03T12:11:21;100966.09;;;14.64;47.64
55540;BME280;41384;51.418;7.286;2023-05-03T12:13:57;100945.28;;;14.74;48.01
55540;BME280;41384;51.418;7.286;2023-05-03T12:16:23;100940.78;;;14.81;47.63
55540;BME280;41384;51.418;7.286;2023-05-03T12:18:54;100943.22;;;14.63;46.58
55540;BME280;41384;51.418;7.286;2023-05-03T12:21:22;100944.06;;;14.70;45.54
55540;BME280;41384;51.418;7.286;2023-05-03T12:23:48;100938.53;;;14.78;46.39
55540;BME280;41384;51.418;7.286;2023-05-03T12:26:16;100938.31;;;14.73;44.57
55540;BME280;41384;51.418;7.286;2023-05-03T12:28:42;100932.59;;;14.76;44.91
55540;BME280;41384;51.418;7.286;2023-05-03T12:31:08;100931.56;;;14.84;45.53
55540;BME280;41384;51.418;7.286;2023-05-03T12:33:34;100935.19;;;14.96;45.02
55540;BME280;41384;51.418;7.286;2023-05-03T12:35:59;100933.38;;;14.97;44.31
55540;BME280;41384;51.418;7.286;2023-05-03T12:38:26;100933.41;;;14.83;44.62
55540;BME280;41384;51.418;7.286;2023-05-03T12:40:51;100936.22;;;15.02;45.75
55540;BME280;41384;51.418;7.286;2023-05-03T12:43:17;100932.56;;;14.83;44.45
55540;BME280;41384;51.418;7.286;2023-05-03T12:45:42;100928.06;;;15.03;45.32
55540;BME280;41384;51.418;7.286;2023-05-03T12:48:08;100929.84;;;15.16;44.53
55540;BME280;41384;51.418;7.286;2023-05-03T12:50:34;100930.25;;;15.13;44.17
55540;BME280;41384;51.418;7.286;2023-05-03T12:52:59;100923.31;;;15.19;45.38
55540;BME280;41384;51.418;7.286;2023-05-03T12:55:24;100918.34;;;15.29;45.65
55540;BME280;41384;51.418;7.286;2023-05-03T12:57:51;100912.75;;;15.44;45.97
55540;BME280;41384;51.418;7.286;2023-05-03T13:00:16;100919.72;;;15.45;44.28
55540;BME280;41384;51.418;7.286;2023-05-03T13:02:45;100908.44;;;15.50;43.80
55540;BME280;41384;51.418;7.286;2023-05-03T13:05:10;100903.94;;;15.51;43.64
55540;BME280;41384;51.418;7.286;2023-05-03T13:07:37;100909.22;;;15.57;44.32
55540;BME280;41384;51.418;7.286;2023-05-03T13:10:04;100896.56;;;15.53;43.98